createdAt,value
2017-12-29T00:00:57.632Z,99399.03
2017-12-29T00:03:25.108Z,99401.11
2017-12-29T00:05:52.624Z,99396.48
2017-12-29T00:08:20.107Z,99385.95
2017-12-29T00:10:48.494Z,99388.48
2017-12-29T00:13:15.995Z,99388.91
2017-12-29T00:15:43.480Z,99400.70
2017-12-29T00:18:10.967Z,99399.48
2017-12-29T00:20:38.445Z,99401.16
2017-12-29T00:23:05.935Z,99397.86
2017-12-29T00:25:33.476Z,99401.66
2017-12-29T00:28:00.967Z,99407.18
2017-12-29T00:30:28.453Z,99403.81
2017-12-29T00:32:55.918Z,99405.95
2017-12-29T00:35:23.432Z,99406.76
2017-12-29T00:37:50.924Z,99411.02
2017-12-29T00:40:18.373Z,99418.62
2017-12-29T00:42:45.893Z,99418.64
2017-12-29T00:45:13.384Z,99429.98
2017-12-29T00:47:40.881Z,99437.19
2017-12-29T00:50:08.372Z,99437.17
2017-12-29T00:52:35.868Z,99437.98
2017-12-29T00:55:03.357Z,99446.00
2017-12-29T00:57:30.855Z,99436.28
2017-12-29T00:59:58.337Z,99441.78
2017-12-29T01:02:25.806Z,99439.67
2017-12-29T01:04:53.273Z,99435.06
2017-12-29T01:07:20.756Z,99441.00
2017-12-29T01:09:48.296Z,99442.72
2017-12-29T01:12:15.751Z,99451.11
2017-12-29T01:14:43.225Z,99452.84
2017-12-29T01:17:10.680Z,99458.75
2017-12-29T01:19:38.479Z,99462.53
2017-12-29T01:22:05.937Z,99469.33
2017-12-29T01:24:33.396Z,99464.28
2017-12-29T01:27:00.904Z,99470.19
2017-12-29T01:29:28.392Z,99476.11
2017-12-29T01:31:55.867Z,99476.53
2017-12-29T01:34:23.355Z,99484.55
2017-12-29T01:36:50.841Z,99478.64
2017-12-29T01:39:18.324Z,99483.25
2017-12-29T01:41:46.479Z,99491.28
2017-12-29T01:44:13.964Z,99492.11
2017-12-29T01:46:41.444Z,99488.73
2017-12-29T01:49:08.947Z,99492.50
2017-12-29T01:51:36.435Z,99492.07
2017-12-29T01:54:03.933Z,99497.13
2017-12-29T01:56:31.444Z,99493.77
2017-12-29T01:58:58.932Z,99498.84
2017-12-29T02:01:26.422Z,99496.77
2017-12-29T02:03:53.932Z,99492.14
2017-12-29T02:06:21.402Z,99497.59
2017-12-29T02:08:48.883Z,99498.01
2017-12-29T02:11:16.392Z,99497.59
2017-12-29T02:13:43.879Z,99495.05
2017-12-29T02:16:11.347Z,99494.22
2017-12-29T02:18:38.825Z,99495.47
2017-12-29T02:21:06.327Z,99494.62
2017-12-29T02:23:33.824Z,99498.80
2017-12-29T02:26:02.152Z,99494.99
2017-12-29T02:28:29.617Z,99492.88
2017-12-29T02:30:57.105Z,99500.02
2017-12-29T02:33:24.604Z,99498.75
2017-12-29T02:35:52.070Z,99499.63
2017-12-29T02:38:19.556Z,99510.17
2017-12-29T02:40:47.030Z,99509.30
2017-12-29T02:43:14.522Z,99516.06
2017-12-29T02:45:42.005Z,99512.70
2017-12-29T02:48:09.475Z,99511.86
2017-12-29T02:50:36.941Z,99508.89
2017-12-29T02:53:04.444Z,99503.41
2017-12-29T02:55:31.917Z,99514.81
2017-12-29T02:57:59.392Z,99522.39
2017-12-29T03:00:26.854Z,99523.64
2017-12-29T03:02:54.339Z,99522.83
2017-12-29T03:05:21.848Z,99521.56
2017-12-29T03:07:49.280Z,99526.21
2017-12-29T03:10:16.736Z,99522.87
2017-12-29T03:12:44.218Z,99532.96
2017-12-29T03:15:11.677Z,99529.19
2017-12-29T03:17:39.129Z,99531.28
2017-12-29T03:20:06.609Z,99527.91
2017-12-29T03:22:34.082Z,99527.49
2017-12-29T03:25:01.534Z,99525.36
2017-12-29T03:27:28.992Z,99521.17
2017-12-29T03:29:56.485Z,99519.07
2017-12-29T03:32:23.942Z,99525.41
2017-12-29T03:34:51.423Z,99516.58
2017-12-29T03:37:18.889Z,99525.83
2017-12-29T03:39:46.376Z,99527.52
2017-12-29T03:42:13.876Z,99525.86
2017-12-29T03:44:41.945Z,99526.28
2017-12-29T03:47:09.409Z,99532.59
2017-12-29T03:49:36.909Z,99530.89
2017-12-29T03:52:04.390Z,99532.59
2017-12-29T03:54:31.858Z,99539.34
2017-12-29T03:56:59.351Z,99547.75
2017-12-29T03:59:26.841Z,99550.28
2017-12-29T04:01:54.329Z,99549.00
2017-12-29T04:04:21.793Z,99554.06
2017-12-29T04:06:49.277Z,99555.33
2017-12-29T04:09:16.757Z,99554.47
2017-12-29T04:11:44.269Z,99555.30
2017-12-29T04:14:11.725Z,99558.67
2017-12-29T04:16:39.223Z,99560.79
2017-12-29T04:19:10.179Z,99560.78
2017-12-29T04:21:37.691Z,99559.08
2017-12-29T04:24:05.191Z,99556.55
2017-12-29T04:26:32.680Z,99556.55
2017-12-29T04:29:00.156Z,99562.02
2017-12-29T04:31:27.635Z,99556.96
2017-12-29T04:33:55.123Z,99562.84
2017-12-29T04:36:22.622Z,99552.31
2017-12-29T04:38:50.104Z,99552.74
2017-12-29T04:41:17.569Z,99556.10
2017-12-29T04:43:45.063Z,99565.81
2017-12-29T04:46:12.539Z,99564.11
2017-12-29T04:48:40.010Z,99558.64
2017-12-29T04:51:07.484Z,99562.86
2017-12-29T04:53:34.960Z,99565.80
2017-12-29T04:56:02.456Z,99564.13
2017-12-29T04:58:29.956Z,99567.92
2017-12-29T05:00:57.458Z,99559.07
2017-12-29T05:03:24.951Z,99563.28
2017-12-29T05:05:52.430Z,99572.57
2017-12-29T05:08:19.893Z,99568.36
2017-12-29T05:10:47.375Z,99555.27
2017-12-29T05:13:14.867Z,99567.08
2017-12-29T05:15:42.359Z,99569.17
2017-12-29T05:18:09.839Z,99573.81
2017-12-29T05:20:37.333Z,99574.65
2017-12-29T05:23:04.820Z,99580.13
2017-12-29T05:25:32.291Z,99575.07
2017-12-29T05:27:59.761Z,99572.95
2017-12-29T05:30:27.273Z,99576.32
2017-12-29T05:32:54.736Z,99584.73
2017-12-29T05:35:22.220Z,99591.48
2017-12-29T05:37:49.711Z,99593.59
2017-12-29T05:40:17.209Z,99594.85
2017-12-29T05:42:44.694Z,99592.33
2017-12-29T05:45:12.188Z,99595.28
2017-12-29T05:47:39.693Z,99597.39
2017-12-29T05:50:07.163Z,99605.39
2017-12-29T05:52:34.660Z,99607.52
2017-12-29T05:55:02.141Z,99602.48
2017-12-29T05:57:29.640Z,99601.22
2017-12-29T05:59:57.115Z,99602.91
2017-12-29T06:02:24.603Z,99604.61
2017-12-29T06:04:52.091Z,99605.03
2017-12-29T06:07:19.573Z,99601.23
2017-12-29T06:09:47.056Z,99613.43
2017-12-29T06:12:14.551Z,99615.98
2017-12-29T06:14:42.040Z,99615.56
2017-12-29T06:17:09.527Z,99622.70
2017-12-29T06:19:37.001Z,99620.17
2017-12-29T06:22:04.482Z,99628.58
2017-12-29T06:24:31.992Z,99636.59
2017-12-29T06:26:59.465Z,99641.22
2017-12-29T06:29:26.967Z,99642.04
2017-12-29T06:31:54.431Z,99645.42
2017-12-29T06:34:21.916Z,99652.16
2017-12-29T06:36:49.386Z,99650.92
2017-12-29T06:39:16.854Z,99652.61
2017-12-29T06:41:44.337Z,99651.77
2017-12-29T06:44:11.837Z,99657.25
2017-12-29T06:46:39.316Z,99658.09
2017-12-29T06:49:06.789Z,99654.31
2017-12-29T06:51:34.269Z,99663.59
2017-12-29T06:54:01.778Z,99662.30
2017-12-29T06:56:29.271Z,99666.53
2017-12-29T06:58:56.750Z,99674.11
2017-12-29T07:01:24.269Z,99672.00
2017-12-29T07:03:51.880Z,99675.37
2017-12-29T07:06:19.411Z,99677.89
2017-12-29T07:08:46.873Z,99680.02
2017-12-29T07:11:14.354Z,99685.89
2017-12-29T07:13:41.809Z,99690.96
2017-12-29T07:16:09.291Z,99692.20
2017-12-29T07:18:36.745Z,99687.58
2017-12-29T07:21:04.239Z,99691.78
2017-12-29T07:23:31.744Z,99692.20
2017-12-29T07:25:59.250Z,99691.34
2017-12-29T07:28:26.714Z,99692.63
2017-12-29T07:30:54.226Z,99693.90
2017-12-29T07:33:21.728Z,99697.28
2017-12-29T07:35:49.206Z,99699.41
2017-12-29T07:38:16.685Z,99698.12
2017-12-29T07:40:44.264Z,99705.27
2017-12-29T07:43:11.734Z,99700.23
2017-12-29T07:45:39.217Z,99703.19
2017-12-29T07:48:06.740Z,99712.45
2017-12-29T07:50:34.205Z,99717.09
2017-12-29T07:53:01.758Z,99713.73
2017-12-29T07:55:29.271Z,99720.91
2017-12-29T07:57:56.889Z,99726.80
2017-12-29T08:00:24.384Z,99730.17
2017-12-29T08:02:51.921Z,99734.37
2017-12-29T08:05:19.616Z,99736.07
2017-12-29T08:07:47.122Z,99731.86
2017-12-29T08:10:14.690Z,99738.59
2017-12-29T08:12:42.188Z,99736.50
2017-12-29T08:15:09.786Z,99741.53
2017-12-29T08:17:37.355Z,99747.02
2017-12-29T08:20:04.862Z,99748.30
2017-12-29T08:22:32.464Z,99745.77
2017-12-29T08:24:59.942Z,99747.04
2017-12-29T08:27:27.462Z,99752.08
2017-12-29T08:29:54.992Z,99758.41
2017-12-29T08:32:23.347Z,99766.02
2017-12-29T08:34:50.882Z,99761.80
2017-12-29T08:37:18.558Z,99763.91
2017-12-29T08:39:46.053Z,99760.96
2017-12-29T08:42:13.573Z,99760.95
2017-12-29T08:44:41.078Z,99764.33
2017-12-29T08:47:08.733Z,99767.29
2017-12-29T08:49:36.256Z,99765.17
2017-12-29T08:52:03.829Z,99767.29
2017-12-29T08:54:31.476Z,99765.59
2017-12-29T08:56:59.078Z,99755.47
2017-12-29T08:59:26.544Z,99761.38
2017-12-29T09:01:54.032Z,99758.00
2017-12-29T09:04:21.539Z,99756.73
2017-12-29T09:06:49.160Z,99748.72
2017-12-29T09:09:16.609Z,99747.77
2017-12-29T09:11:44.233Z,99749.13
2017-12-29T09:14:11.708Z,99748.55
2017-12-29T09:16:39.182Z,99739.40
2017-12-29T09:19:06.704Z,99737.89
2017-12-29T09:21:34.188Z,99738.77
2017-12-29T09:24:01.657Z,99737.30
2017-12-29T09:26:29.298Z,99737.23
2017-12-29T09:28:56.864Z,99732.48
2017-12-29T09:31:24.388Z,99729.93
2017-12-29T09:33:51.869Z,99719.37
2017-12-29T09:36:19.531Z,99732.72
2017-12-29T09:38:47.032Z,99730.83
2017-12-29T09:41:14.507Z,99740.00
2017-12-29T09:43:41.991Z,99741.03
2017-12-29T09:46:09.485Z,99742.17
2017-12-29T09:48:36.960Z,99734.10
2017-12-29T09:51:04.441Z,99738.40
2017-12-29T09:53:31.932Z,99740.92
2017-12-29T09:55:59.429Z,99739.14
2017-12-29T09:58:26.885Z,99744.93
2017-12-29T10:00:54.349Z,99743.04
2017-12-29T10:03:21.913Z,99737.00
2017-12-29T10:05:49.384Z,99740.32
2017-12-29T10:08:17.449Z,99729.98
2017-12-29T10:10:44.987Z,99745.29
2017-12-29T10:13:12.467Z,99726.23
2017-12-29T10:15:39.969Z,99724.04
2017-12-29T10:18:11.830Z,99721.04
2017-12-29T10:20:39.312Z,99717.27
2017-12-29T10:23:06.847Z,99709.84
2017-12-29T10:25:36.384Z,99709.78
2017-12-29T10:28:03.877Z,99705.98
2017-12-29T10:30:31.840Z,99703.61
2017-12-29T10:32:59.368Z,99700.27
2017-12-29T10:35:27.017Z,99704.06
2017-12-29T10:37:54.496Z,99701.09
2017-12-29T10:40:22.088Z,99709.14
2017-12-29T10:42:49.564Z,99700.71
2017-12-29T10:45:18.043Z,99698.58
2017-12-29T10:47:45.517Z,99695.25
2017-12-29T10:50:13.069Z,99688.45
2017-12-29T10:52:40.611Z,99700.77
2017-12-29T10:55:08.112Z,99705.60
2017-12-29T10:57:35.904Z,99707.31
2017-12-29T11:00:03.391Z,99708.55
2017-12-29T11:02:30.846Z,99700.23
2017-12-29T11:04:58.338Z,99704.89
2017-12-29T11:07:25.835Z,99707.90
2017-12-29T11:09:54.023Z,99710.80
2017-12-29T11:12:21.510Z,99700.19
2017-12-29T11:14:49.036Z,99697.22
2017-12-29T11:17:17.245Z,99692.09
2017-12-29T11:19:44.771Z,99691.80
2017-12-29T11:22:12.267Z,99686.30
2017-12-29T11:24:40.073Z,99680.82
2017-12-29T11:27:07.551Z,99688.81
2017-12-29T11:29:35.115Z,99676.13
2017-12-29T11:32:02.601Z,99672.64
2017-12-29T11:34:30.105Z,99656.64
2017-12-29T11:36:57.581Z,99661.64
2017-12-29T11:39:25.138Z,99668.89
2017-12-29T11:41:52.689Z,99664.57
2017-12-29T11:44:20.163Z,99661.14
2017-12-29T11:46:48.367Z,99659.81
2017-12-29T11:49:15.854Z,99661.47
2017-12-29T11:51:43.340Z,99658.19
2017-12-29T11:54:10.820Z,99650.58
2017-12-29T11:56:40.662Z,99654.80
2017-12-29T11:59:08.151Z,99653.44
2017-12-29T12:01:35.629Z,99646.84
2017-12-29T12:04:03.106Z,99647.26
2017-12-29T12:06:30.644Z,99645.18
2017-12-29T12:08:58.119Z,99653.98
2017-12-29T12:11:25.608Z,99654.83
2017-12-29T12:13:53.081Z,99651.50
2017-12-29T12:16:20.583Z,99648.66
2017-12-29T12:18:48.058Z,99646.58
2017-12-29T12:21:15.526Z,99644.84
2017-12-29T12:23:43.013Z,99641.05
2017-12-29T12:26:10.503Z,99639.39
2017-12-29T12:28:37.993Z,99637.27
2017-12-29T12:31:05.468Z,99633.87
2017-12-29T12:33:32.930Z,99617.77
2017-12-29T12:36:01.156Z,99617.95
2017-12-29T12:38:28.609Z,99614.91
2017-12-29T12:40:56.106Z,99608.18
2017-12-29T12:43:23.589Z,99608.64
2017-12-29T12:45:51.710Z,99594.26
2017-12-29T12:48:19.406Z,99595.11
2017-12-29T12:50:47.174Z,99592.62
2017-12-29T12:53:14.931Z,99601.11
2017-12-29T12:55:42.407Z,99596.04
2017-12-29T12:58:09.866Z,99596.44
2017-12-29T13:00:37.431Z,99588.95
2017-12-29T13:03:04.929Z,99584.81
2017-12-29T13:05:32.373Z,99582.66
2017-12-29T13:07:59.857Z,99577.20
2017-12-29T13:10:27.371Z,99580.61
2017-12-29T13:12:54.829Z,99584.44
2017-12-29T13:15:22.293Z,99577.72
2017-12-29T13:17:49.756Z,99586.09
2017-12-29T13:20:17.213Z,99576.81
2017-12-29T13:22:44.685Z,99578.95
2017-12-29T13:25:12.180Z,99575.20
2017-12-29T13:27:39.673Z,99569.30
2017-12-29T13:30:07.142Z,99571.80
2017-12-29T13:32:34.614Z,99575.98
2017-12-29T13:35:02.084Z,99573.05
2017-12-29T13:37:29.568Z,99575.16
2017-12-29T13:39:57.034Z,99566.76
2017-12-29T13:42:24.525Z,99565.05
2017-12-29T13:44:52.009Z,99567.25
2017-12-29T13:47:19.490Z,99557.92
2017-12-29T13:49:46.966Z,99558.75
2017-12-29T13:52:14.480Z,99551.11
2017-12-29T13:54:41.950Z,99549.95
2017-12-29T13:57:09.433Z,99546.93
2017-12-29T13:59:36.903Z,99556.66
2017-12-29T14:02:04.368Z,99557.03
2017-12-29T14:04:31.846Z,99548.63
2017-12-29T14:06:59.305Z,99552.84
2017-12-29T14:09:26.765Z,99550.40
2017-12-29T14:11:54.238Z,99546.97
2017-12-29T14:14:21.710Z,99545.33
2017-12-29T14:16:49.161Z,99544.94
2017-12-29T14:19:16.637Z,99544.47
2017-12-29T14:21:44.104Z,99542.88
2017-12-29T14:24:11.593Z,99539.93
2017-12-29T14:26:39.050Z,99536.11
2017-12-29T14:29:06.512Z,99533.20
2017-12-29T14:31:34.146Z,99528.55
2017-12-29T14:34:01.619Z,99528.55
2017-12-29T14:36:29.185Z,99519.27
2017-12-29T14:38:56.734Z,99521.83
2017-12-29T14:41:24.220Z,99522.67
2017-12-29T14:43:51.796Z,99523.54
2017-12-29T14:46:19.267Z,99517.66
2017-12-29T14:48:46.728Z,99518.09
2017-12-29T14:51:14.202Z,99518.08
2017-12-29T14:53:41.696Z,99519.34
2017-12-29T14:56:09.194Z,99510.92
2017-12-29T14:58:36.698Z,99506.70
2017-12-29T15:01:04.174Z,99493.23
2017-12-29T15:03:31.667Z,99490.30
2017-12-29T15:05:59.129Z,99484.01
2017-12-29T15:08:26.631Z,99485.26
2017-12-29T15:10:54.101Z,99481.92
2017-12-29T15:13:21.611Z,99475.20
2017-12-29T15:15:49.105Z,99468.88
2017-12-29T15:18:16.587Z,99460.03
2017-12-29T15:20:44.037Z,99455.02
2017-12-29T15:23:11.518Z,99440.70
2017-12-29T15:25:38.980Z,99436.48
2017-12-29T15:28:07.280Z,99436.50
2017-12-29T15:30:34.741Z,99431.88
2017-12-29T15:33:02.212Z,99425.12
2017-12-29T15:35:29.692Z,99419.68
2017-12-29T15:37:57.157Z,99416.27
2017-12-29T15:40:25.576Z,99422.20
2017-12-29T15:42:53.070Z,99410.00
2017-12-29T15:45:20.558Z,99404.08
2017-12-29T15:47:48.412Z,99398.63
2017-12-29T15:50:15.880Z,99397.77
2017-12-29T15:52:43.358Z,99401.14
2017-12-29T15:55:10.812Z,99394.83
2017-12-29T15:57:38.284Z,99388.89
2017-12-29T16:00:05.785Z,99391.45
2017-12-29T16:02:34.167Z,99379.68
2017-12-29T16:05:01.626Z,99376.29
2017-12-29T16:07:29.115Z,99376.71
2017-12-29T16:09:56.596Z,99374.61
2017-12-29T16:12:24.067Z,99379.27
2017-12-29T16:14:51.554Z,99370.46
2017-12-29T16:17:19.055Z,99362.04
2017-12-29T16:19:46.542Z,99359.94
2017-12-29T16:22:14.140Z,99360.81
2017-12-29T16:24:41.611Z,99351.14
2017-12-29T16:27:09.108Z,99345.26
2017-12-29T16:29:36.573Z,99335.58
2017-12-29T16:32:04.049Z,99336.84
2017-12-29T16:34:31.519Z,99334.33
2017-12-29T16:36:58.994Z,99330.09
2017-12-29T16:39:26.450Z,99322.09
2017-12-29T16:41:53.925Z,99315.81
2017-12-29T16:44:21.435Z,99311.61
2017-12-29T16:46:48.882Z,99300.66
2017-12-29T16:49:16.339Z,99304.44
2017-12-29T16:51:43.816Z,99299.81
2017-12-29T16:54:11.295Z,99292.69
2017-12-29T16:56:38.783Z,99293.09
2017-12-29T16:59:06.291Z,99290.16
2017-12-29T17:01:33.780Z,99283.42
2017-12-29T17:04:01.355Z,99286.38
2017-12-29T17:06:28.801Z,99281.33
2017-12-29T17:08:56.277Z,99282.60
2017-12-29T17:11:23.745Z,99275.85
2017-12-29T17:13:51.228Z,99276.30
2017-12-29T17:16:18.714Z,99283.04
2017-12-29T17:18:46.181Z,99283.44
2017-12-29T17:21:13.667Z,99288.52
2017-12-29T17:23:41.151Z,99285.56
2017-12-29T17:26:08.737Z,99282.22
2017-12-29T17:28:36.217Z,99291.48
2017-12-29T17:31:03.690Z,99285.58
2017-12-29T17:33:31.182Z,99282.25
2017-12-29T17:35:58.647Z,99282.24
2017-12-29T17:38:26.118Z,99275.08
2017-12-29T17:40:53.616Z,99278.05
2017-12-29T17:43:21.102Z,99280.56
2017-12-29T17:45:48.563Z,99276.34
2017-12-29T17:48:16.018Z,99270.05
2017-12-29T17:50:43.476Z,99269.25
2017-12-29T17:53:10.952Z,99263.78
2017-12-29T17:55:38.446Z,99264.62
2017-12-29T17:58:05.937Z,99258.34
2017-12-29T18:00:33.439Z,99250.76
2017-12-29T18:03:00.922Z,99240.27
2017-12-29T18:05:28.437Z,99236.47
2017-12-29T18:07:55.893Z,99234.79
2017-12-29T18:10:23.369Z,99238.99
2017-12-29T18:12:50.833Z,99230.56
2017-12-29T18:15:18.299Z,99236.91
2017-12-29T18:17:46.694Z,99235.19
2017-12-29T18:20:14.172Z,99229.72
2017-12-29T18:22:41.644Z,99224.23
2017-12-29T18:25:09.115Z,99222.56
2017-12-29T18:27:36.621Z,99223.80
2017-12-29T18:30:04.162Z,99224.19
2017-12-29T18:32:31.624Z,99225.88
2017-12-29T18:34:59.100Z,99225.45
2017-12-29T18:37:26.600Z,99220.41
2017-12-29T18:39:54.086Z,99218.30
2017-12-29T18:42:21.624Z,99214.48
2017-12-29T18:44:49.103Z,99206.49
2017-12-29T18:47:16.567Z,99214.06
2017-12-29T18:49:44.048Z,99208.17
2017-12-29T18:52:11.580Z,99208.16
2017-12-29T18:54:39.070Z,99212.38
2017-12-29T18:57:06.565Z,99211.97
2017-12-29T18:59:34.042Z,99214.92
2017-12-29T19:02:01.524Z,99212.79
2017-12-29T19:04:29.054Z,99213.63
2017-12-29T19:06:56.513Z,99212.35
2017-12-29T19:09:23.978Z,99214.88
2017-12-29T19:11:51.504Z,99216.95
2017-12-29T19:14:18.956Z,99207.69
2017-12-29T19:16:47.225Z,99203.91
2017-12-29T19:19:14.711Z,99205.18
2017-12-29T19:21:42.167Z,99201.80
2017-12-29T19:24:09.653Z,99205.59
2017-12-29T19:26:37.156Z,99199.28
2017-12-29T19:29:04.623Z,99197.20
2017-12-29T19:31:32.151Z,99189.68
2017-12-29T19:33:59.667Z,99182.52
2017-12-29T19:36:27.423Z,99171.58
2017-12-29T19:38:54.972Z,99175.80
2017-12-29T19:41:22.460Z,99180.85
2017-12-29T19:43:49.968Z,99170.78
2017-12-29T19:46:17.497Z,99175.02
2017-12-29T19:48:45.076Z,99169.56
2017-12-29T19:51:12.545Z,99171.67
2017-12-29T19:53:40.017Z,99166.62
2017-12-29T19:56:08.325Z,99176.75
2017-12-29T19:58:35.941Z,99171.72
2017-12-29T20:01:03.407Z,99182.20
2017-12-29T20:03:30.988Z,99180.97
2017-12-29T20:05:58.504Z,99180.55
2017-12-29T20:08:26.096Z,99184.73
2017-12-29T20:10:53.612Z,99183.91
2017-12-29T20:13:21.088Z,99187.27
2017-12-29T20:15:48.549Z,99193.58
2017-12-29T20:18:16.584Z,99188.14
2017-12-29T20:20:44.868Z,99186.03
2017-12-29T20:23:12.348Z,99180.99
2017-12-29T20:25:39.806Z,99172.97
2017-12-29T20:28:07.304Z,99178.45
2017-12-29T20:30:34.828Z,99180.97
2017-12-29T20:33:02.312Z,99189.36
2017-12-29T20:35:29.853Z,99186.42
2017-12-29T20:37:57.332Z,99193.53
2017-12-29T20:40:24.827Z,99197.32
2017-12-29T20:42:52.312Z,99191.02
2017-12-29T20:45:19.821Z,99189.30
2017-12-29T20:47:47.417Z,99198.16
2017-12-29T20:50:14.908Z,99185.52
2017-12-29T20:52:42.376Z,99187.23
2017-12-29T20:55:09.893Z,99185.52
2017-12-29T20:57:37.358Z,99177.55
2017-12-29T21:00:04.842Z,99177.53
2017-12-29T21:02:32.342Z,99168.70
2017-12-29T21:04:59.825Z,99170.80
2017-12-29T21:07:27.853Z,99169.92
2017-12-29T21:09:55.334Z,99168.66
2017-12-29T21:12:23.145Z,99169.48
2017-12-29T21:14:51.444Z,99172.41
2017-12-29T21:17:18.905Z,99178.25
2017-12-29T21:19:46.354Z,99178.21
2017-12-29T21:22:13.819Z,99173.58
2017-12-29T21:24:41.326Z,99182.38
2017-12-29T21:27:08.808Z,99183.22
2017-12-29T21:29:36.302Z,99188.72
2017-12-29T21:32:03.762Z,99183.68
2017-12-29T21:34:31.270Z,99184.09
2017-12-29T21:36:58.736Z,99188.33
2017-12-29T21:39:26.205Z,99185.80
2017-12-29T21:41:53.661Z,99189.59
2017-12-29T21:44:21.997Z,99191.28
2017-12-29T21:46:49.462Z,99192.95
2017-12-29T21:49:16.918Z,99193.80
2017-12-29T21:51:44.414Z,99192.99
2017-12-29T21:54:11.893Z,99200.98
2017-12-29T21:56:39.420Z,99193.41
2017-12-29T21:59:06.941Z,99191.30
2017-12-29T22:01:34.452Z,99194.66
2017-12-29T22:04:01.930Z,99197.22
2017-12-29T22:06:29.599Z,99201.42
2017-12-29T22:08:57.101Z,99202.70
2017-12-29T22:11:24.602Z,99203.14
2017-12-29T22:13:52.628Z,99208.58
2017-12-29T22:16:20.205Z,99206.48
2017-12-29T22:18:47.664Z,99205.22
2017-12-29T22:21:15.163Z,99201.42
2017-12-29T22:23:42.639Z,99206.88
2017-12-29T22:26:10.155Z,99206.05
2017-12-29T22:28:37.630Z,99211.92
2017-12-29T22:31:05.126Z,99214.86
2017-12-29T22:33:33.285Z,99208.97
2017-12-29T22:36:00.759Z,99203.48
2017-12-29T22:38:28.354Z,99209.41
2017-12-29T22:40:55.820Z,99210.66
2017-12-29T22:43:23.322Z,99213.59
2017-12-29T22:45:50.951Z,99213.19
2017-12-29T22:48:18.479Z,99211.90
2017-12-29T22:50:45.994Z,99217.80
2017-12-29T22:53:13.589Z,99220.30
2017-12-29T22:55:41.077Z,99215.27
2017-12-29T22:58:08.569Z,99224.95
2017-12-29T23:00:36.080Z,99228.69
2017-12-29T23:03:03.561Z,99237.51
2017-12-29T23:05:31.080Z,99234.13
2017-12-29T23:07:58.576Z,99231.20
2017-12-29T23:10:26.120Z,99231.16
2017-12-29T23:12:53.596Z,99233.66
2017-12-29T23:15:21.196Z,99235.80
2017-12-29T23:17:48.676Z,99236.22
2017-12-29T23:20:16.192Z,99237.47
2017-12-29T23:22:43.734Z,99239.60
2017-12-29T23:25:11.272Z,99245.47
2017-12-29T23:27:38.753Z,99239.60
2017-12-29T23:30:07.141Z,99246.36
2017-12-29T23:32:34.601Z,99255.59
2017-12-29T23:35:02.087Z,99252.23
2017-12-29T23:37:29.667Z,99252.22
2017-12-29T23:39:57.137Z,99260.23
2017-12-29T23:42:24.890Z,99259.81
2017-12-29T23:44:52.409Z,99264.45
2017-12-29T23:47:23.502Z,99269.91
2017-12-29T23:49:51.011Z,99272.86
2017-12-29T23:52:18.484Z,99278.31
2017-12-29T23:54:45.951Z,99283.41
2017-12-29T23:57:13.432Z,99285.91
2017-12-29T23:59:40.915Z,99286.36
